sensor_id;sensor_type;location;lat;lon;timestamp;P1;durP1;ratioP1;P2;durP2;ratioP2
75990;SDS011;64673;52.276;10.560;2023-04-24T00:00:10;2.95;;;1.10;;
75990;SDS011;64673;52.276;10.560;2023-04-24T00:02:37;1.90;;;0.85;;
75990;SDS011;64673;52.276;10.560;2023-04-24T00:05:04;2.85;;;0.90;;
75990;SDS011;64673;52.276;10.560;2023-04-24T00:07:30;1.60;;;0.90;;
75990;SDS011;64673;52.276;10.560;2023-04-24T00:09:56;2.20;;;1.00;;
75990;SDS011;64673;52.276;10.560;2023-04-24T00:12:21;1.67;;;0.88;;
75990;SDS011;64673;52.276;10.560;2023-04-24T00:14:46;2.22;;;1.10;;
75990;SDS011;64673;52.276;10.560;2023-04-24T00:17:12;3.40;;;1.00;;
75990;SDS011;64673;52.276;10.560;2023-04-24T00:19:37;1.60;;;0.75;;
75990;SDS011;64673;52.276;10.560;2023-04-24T00:22:03;3.80;;;0.80;;
75990;SDS011;64673;52.276;10.560;2023-04-24T00:24:28;2.08;;;1.13;;
75990;SDS011;64673;52.276;10.560;2023-04-24T00:26:53;1.50;;;0.90;;
75990;SDS011;64673;52.276;10.560;2023-04-24T00:29:19;1.50;;;1.00;;
75990;SDS011;64673;52.276;10.560;2023-04-24T00:31:44;2.17;;;0.80;;
75990;SDS011;64673;52.276;10.560;2023-04-24T00:34:10;1.92;;;0.90;;
75990;SDS011;64673;52.276;10.560;2023-04-24T00:36:36;0.93;;;0.70;;
75990;SDS011;64673;52.276;10.560;2023-04-24T00:39:02;1.30;;;0.80;;
75990;SDS011;64673;52.276;10.560;2023-04-24T00:41:27;1.20;;;0.60;;
75990;SDS011;64673;52.276;10.560;2023-04-24T00:43:53;0.95;;;0.75;;
75990;SDS011;64673;52.276;10.560;2023-04-24T00:46:18;1.63;;;0.63;;
75990;SDS011;64673;52.276;10.560;2023-04-24T00:48:44;4.43;;;0.80;;
75990;SDS011;64673;52.276;10.560;2023-04-24T00:51:09;1.48;;;0.80;;
75990;SDS011;64673;52.276;10.560;2023-04-24T00:53:35;1.67;;;0.70;;
75990;SDS011;64673;52.276;10.560;2023-04-24T00:56:00;1.20;;;0.52;;
75990;SDS011;64673;52.276;10.560;2023-04-24T00:58:26;1.20;;;0.73;;
75990;SDS011;64673;52.276;10.560;2023-04-24T01:00:52;1.45;;;0.50;;
75990;SDS011;64673;52.276;10.560;2023-04-24T01:03:22;1.05;;;0.60;;
75990;SDS011;64673;52.276;10.560;2023-04-24T01:05:49;3.25;;;0.70;;
75990;SDS011;64673;52.276;10.560;2023-04-24T01:08:15;1.17;;;0.55;;
75990;SDS011;64673;52.276;10.560;2023-04-24T01:10:41;1.27;;;0.70;;
75990;SDS011;64673;52.276;10.560;2023-04-24T01:13:09;1.20;;;0.57;;
75990;SDS011;64673;52.276;10.560;2023-04-24T01:15:35;0.98;;;0.40;;
75990;SDS011;64673;52.276;10.560;2023-04-24T01:18:01;0.90;;;0.50;;
75990;SDS011;64673;52.276;10.560;2023-04-24T01:20:26;1.52;;;0.50;;
75990;SDS011;64673;52.276;10.560;2023-04-24T01:22:53;4.57;;;0.93;;
75990;SDS011;64673;52.276;10.560;2023-04-24T01:27:45;2.00;;;0.80;;
75990;SDS011;64673;52.276;10.560;2023-04-24T01:30:11;2.00;;;0.63;;
75990;SDS011;64673;52.276;10.560;2023-04-24T01:32:37;1.50;;;0.60;;
75990;SDS011;64673;52.276;10.560;2023-04-24T01:35:04;1.23;;;0.73;;
75990;SDS011;64673;52.276;10.560;2023-04-24T01:37:29;0.93;;;0.50;;
75990;SDS011;64673;52.276;10.560;2023-04-24T01:39:57;1.42;;;0.50;;
75990;SDS011;64673;52.276;10.560;2023-04-24T01:42:22;1.10;;;0.63;;
75990;SDS011;64673;52.276;10.560;2023-04-24T01:44:48;2.67;;;0.70;;
75990;SDS011;64673;52.276;10.560;2023-04-24T01:47:13;1.02;;;0.52;;
75990;SDS011;64673;52.276;10.560;2023-04-24T01:49:38;1.80;;;0.57;;
75990;SDS011;64673;52.276;10.560;2023-04-24T01:52:04;1.05;;;0.60;;
75990;SDS011;64673;52.276;10.560;2023-04-24T01:54:30;2.53;;;0.60;;
75990;SDS011;64673;52.276;10.560;2023-04-24T01:56:55;1.95;;;0.63;;
75990;SDS011;64673;52.276;10.560;2023-04-24T01:59:21;1.10;;;0.52;;
75990;SDS011;64673;52.276;10.560;2023-04-24T02:01:48;1.73;;;0.60;;
75990;SDS011;64673;52.276;10.560;2023-04-24T02:04:13;1.52;;;0.70;;
75990;SDS011;64673;52.276;10.560;2023-04-24T02:06:40;1.05;;;0.50;;
75990;SDS011;64673;52.276;10.560;2023-04-24T02:09:05;1.80;;;0.40;;
75990;SDS011;64673;52.276;10.560;2023-04-24T02:11:30;1.83;;;0.57;;
75990;SDS011;64673;52.276;10.560;2023-04-24T02:13:56;1.00;;;0.60;;
75990;SDS011;64673;52.276;10.560;2023-04-24T02:16:21;2.22;;;0.75;;
75990;SDS011;64673;52.276;10.560;2023-04-24T02:18:47;1.80;;;0.60;;
75990;SDS011;64673;52.276;10.560;2023-04-24T02:21:12;4.28;;;0.68;;
75990;SDS011;64673;52.276;10.560;2023-04-24T02:23:37;1.27;;;0.70;;
75990;SDS011;64673;52.276;10.560;2023-04-24T02:26:03;2.05;;;0.70;;
75990;SDS011;64673;52.276;10.560;2023-04-24T02:28:28;1.63;;;0.80;;
75990;SDS011;64673;52.276;10.560;2023-04-24T02:30:53;3.13;;;1.02;;
75990;SDS011;64673;52.276;10.560;2023-04-24T02:33:19;2.58;;;0.73;;
75990;SDS011;64673;52.276;10.560;2023-04-24T02:35:44;2.67;;;0.90;;
75990;SDS011;64673;52.276;10.560;2023-04-24T02:38:10;2.50;;;1.00;;
75990;SDS011;64673;52.276;10.560;2023-04-24T02:40:35;1.92;;;0.80;;
75990;SDS011;64673;52.276;10.560;2023-04-24T02:43:00;2.08;;;0.80;;
75990;SDS011;64673;52.276;10.560;2023-04-24T02:45:26;1.55;;;0.80;;
75990;SDS011;64673;52.276;10.560;2023-04-24T02:47:51;3.47;;;1.17;;
75990;SDS011;64673;52.276;10.560;2023-04-24T02:50:16;2.85;;;1.08;;
75990;SDS011;64673;52.276;10.560;2023-04-24T02:52:42;1.92;;;0.95;;
75990;SDS011;64673;52.276;10.560;2023-04-24T02:55:07;2.28;;;1.35;;
75990;SDS011;64673;52.276;10.560;2023-04-24T02:57:33;2.67;;;1.08;;
75990;SDS011;64673;52.276;10.560;2023-04-24T02:59:58;2.03;;;0.93;;
75990;SDS011;64673;52.276;10.560;2023-04-24T03:02:24;2.33;;;0.98;;
75990;SDS011;64673;52.276;10.560;2023-04-24T03:04:50;2.55;;;1.20;;
75990;SDS011;64673;52.276;10.560;2023-04-24T03:07:15;2.95;;;1.17;;
75990;SDS011;64673;52.276;10.560;2023-04-24T03:09:41;2.72;;;1.02;;
75990;SDS011;64673;52.276;10.560;2023-04-24T03:12:07;2.17;;;0.80;;
75990;SDS011;64673;52.276;10.560;2023-04-24T03:14:32;2.53;;;0.80;;
75990;SDS011;64673;52.276;10.560;2023-04-24T03:16:58;1.60;;;0.80;;
75990;SDS011;64673;52.276;10.560;2023-04-24T03:19:23;2.50;;;1.20;;
75990;SDS011;64673;52.276;10.560;2023-04-24T03:21:49;3.25;;;0.70;;
75990;SDS011;64673;52.276;10.560;2023-04-24T03:24:14;1.75;;;0.80;;
75990;SDS011;64673;52.276;10.560;2023-04-24T03:26:40;1.38;;;0.47;;
75990;SDS011;64673;52.276;10.560;2023-04-24T03:29:05;1.50;;;0.75;;
75990;SDS011;64673;52.276;10.560;2023-04-24T03:31:30;1.20;;;0.70;;
75990;SDS011;64673;52.276;10.560;2023-04-24T03:33:56;1.05;;;0.50;;
75990;SDS011;64673;52.276;10.560;2023-04-24T03:36:22;2.35;;;0.60;;
75990;SDS011;64673;52.276;10.560;2023-04-24T03:38:48;1.20;;;0.60;;
75990;SDS011;64673;52.276;10.560;2023-04-24T03:41:13;1.83;;;0.60;;
75990;SDS011;64673;52.276;10.560;2023-04-24T03:43:38;1.52;;;0.60;;
75990;SDS011;64673;52.276;10.560;2023-04-24T03:46:04;2.53;;;0.60;;
75990;SDS011;64673;52.276;10.560;2023-04-24T03:48:30;2.15;;;1.25;;
75990;SDS011;64673;52.276;10.560;2023-04-24T03:50:55;2.65;;;0.98;;
75990;SDS011;64673;52.276;10.560;2023-04-24T03:53:21;1.95;;;0.90;;
75990;SDS011;64673;52.276;10.560;2023-04-24T03:55:46;1.40;;;0.63;;
75990;SDS011;64673;52.276;10.560;2023-04-24T03:58:12;1.73;;;0.60;;
75990;SDS011;64673;52.276;10.560;2023-04-24T04:00:39;0.90;;;0.55;;
75990;SDS011;64673;52.276;10.560;2023-04-24T04:03:05;1.98;;;0.65;;
75990;SDS011;64673;52.276;10.560;2023-04-24T04:05:30;1.50;;;0.50;;
75990;SDS011;64673;52.276;10.560;2023-04-24T04:07:56;1.67;;;0.57;;
75990;SDS011;64673;52.276;10.560;2023-04-24T04:10:21;1.00;;;0.47;;
75990;SDS011;64673;52.276;10.560;2023-04-24T04:12:46;1.35;;;0.73;;
75990;SDS011;64673;52.276;10.560;2023-04-24T04:15:12;3.28;;;0.73;;
75990;SDS011;64673;52.276;10.560;2023-04-24T04:17:37;1.45;;;0.60;;
75990;SDS011;64673;52.276;10.560;2023-04-24T04:20:03;1.95;;;0.73;;
75990;SDS011;64673;52.276;10.560;2023-04-24T04:22:33;7.38;;;0.90;;
75990;SDS011;64673;52.276;10.560;2023-04-24T04:24:59;1.73;;;0.60;;
75990;SDS011;64673;52.276;10.560;2023-04-24T04:27:24;3.28;;;0.93;;
75990;SDS011;64673;52.276;10.560;2023-04-24T04:29:49;1.65;;;0.80;;
75990;SDS011;64673;52.276;10.560;2023-04-24T04:32:15;2.45;;;0.80;;
75990;SDS011;64673;52.276;10.560;2023-04-24T04:34:41;1.25;;;0.80;;
75990;SDS011;64673;52.276;10.560;2023-04-24T04:37:06;3.13;;;0.85;;
75990;SDS011;64673;52.276;10.560;2023-04-24T04:39:32;2.13;;;0.85;;
75990;SDS011;64673;52.276;10.560;2023-04-24T04:41:57;2.53;;;0.95;;
75990;SDS011;64673;52.276;10.560;2023-04-24T04:44:23;1.63;;;0.80;;
75990;SDS011;64673;52.276;10.560;2023-04-24T04:46:48;2.90;;;0.82;;
75990;SDS011;64673;52.276;10.560;2023-04-24T04:49:15;1.60;;;0.73;;
75990;SDS011;64673;52.276;10.560;2023-04-24T04:51:41;4.28;;;1.40;;
75990;SDS011;64673;52.276;10.560;2023-04-24T04:54:07;3.70;;;0.70;;
75990;SDS011;64673;52.276;10.560;2023-04-24T04:56:32;4.93;;;0.98;;
75990;SDS011;64673;52.276;10.560;2023-04-24T04:58:57;4.78;;;1.40;;
75990;SDS011;64673;52.276;10.560;2023-04-24T05:01:24;3.13;;;1.10;;
75990;SDS011;64673;52.276;10.560;2023-04-24T05:03:50;3.85;;;1.55;;
75990;SDS011;64673;52.276;10.560;2023-04-24T05:06:15;4.53;;;1.30;;
75990;SDS011;64673;52.276;10.560;2023-04-24T05:08:41;2.50;;;1.13;;
75990;SDS011;64673;52.276;10.560;2023-04-24T05:11:07;1.88;;;0.68;;
75990;SDS011;64673;52.276;10.560;2023-04-24T05:13:32;1.40;;;0.68;;
75990;SDS011;64673;52.276;10.560;2023-04-24T05:15:58;2.10;;;0.80;;
75990;SDS011;64673;52.276;10.560;2023-04-24T05:18:23;0.80;;;0.50;;
75990;SDS011;64673;52.276;10.560;2023-04-24T05:20:49;1.17;;;0.55;;
75990;SDS011;64673;52.276;10.560;2023-04-24T05:23:14;2.67;;;0.60;;
75990;SDS011;64673;52.276;10.560;2023-04-24T05:25:40;1.58;;;0.57;;
75990;SDS011;64673;52.276;10.560;2023-04-24T05:28:11;0.75;;;0.40;;
75990;SDS011;64673;52.276;10.560;2023-04-24T05:30:36;2.33;;;0.80;;
75990;SDS011;64673;52.276;10.560;2023-04-24T05:33:01;3.47;;;0.55;;
75990;SDS011;64673;52.276;10.560;2023-04-24T05:35:27;1.17;;;0.40;;
75990;SDS011;64673;52.276;10.560;2023-04-24T05:37:53;0.93;;;0.57;;
75990;SDS011;64673;52.276;10.560;2023-04-24T05:40:18;2.80;;;0.50;;
75990;SDS011;64673;52.276;10.560;2023-04-24T05:42:43;3.13;;;0.60;;
75990;SDS011;64673;52.276;10.560;2023-04-24T05:45:09;0.77;;;0.47;;
75990;SDS011;64673;52.276;10.560;2023-04-24T05:47:39;2.42;;;0.70;;
75990;SDS011;64673;52.276;10.560;2023-04-24T05:50:05;2.13;;;0.70;;
75990;SDS011;64673;52.276;10.560;2023-04-24T05:52:31;0.93;;;0.50;;
75990;SDS011;64673;52.276;10.560;2023-04-24T05:54:56;0.82;;;0.40;;
75990;SDS011;64673;52.276;10.560;2023-04-24T05:57:21;1.90;;;0.60;;
75990;SDS011;64673;52.276;10.560;2023-04-24T05:59:47;1.25;;;0.50;;
75990;SDS011;64673;52.276;10.560;2023-04-24T06:02:18;0.80;;;0.50;;
75990;SDS011;64673;52.276;10.560;2023-04-24T06:04:44;1.58;;;0.50;;
75990;SDS011;64673;52.276;10.560;2023-04-24T06:07:12;1.85;;;0.60;;
75990;SDS011;64673;52.276;10.560;2023-04-24T06:09:38;3.83;;;0.63;;
75990;SDS011;64673;52.276;10.560;2023-04-24T06:12:03;1.08;;;0.30;;
75990;SDS011;64673;52.276;10.560;2023-04-24T06:14:29;2.13;;;0.50;;
75990;SDS011;64673;52.276;10.560;2023-04-24T06:16:54;0.80;;;0.50;;
75990;SDS011;64673;52.276;10.560;2023-04-24T06:19:20;0.98;;;0.20;;
75990;SDS011;64673;52.276;10.560;2023-04-24T06:21:45;2.70;;;0.50;;
75990;SDS011;64673;52.276;10.560;2023-04-24T06:24:10;3.03;;;0.50;;
75990;SDS011;64673;52.276;10.560;2023-04-24T06:26:36;1.20;;;0.65;;
75990;SDS011;64673;52.276;10.560;2023-04-24T06:29:02;2.22;;;0.60;;
75990;SDS011;64673;52.276;10.560;2023-04-24T06:31:27;1.10;;;0.70;;
75990;SDS011;64673;52.276;10.560;2023-04-24T06:33:52;1.67;;;0.63;;
75990;SDS011;64673;52.276;10.560;2023-04-24T06:36:19;2.30;;;0.60;;
75990;SDS011;64673;52.276;10.560;2023-04-24T06:38:44;2.45;;;0.65;;
75990;SDS011;64673;52.276;10.560;2023-04-24T06:41:10;2.75;;;0.65;;
75990;SDS011;64673;52.276;10.560;2023-04-24T06:43:37;2.05;;;1.05;;
75990;SDS011;64673;52.276;10.560;2023-04-24T06:46:03;1.40;;;0.70;;
75990;SDS011;64673;52.276;10.560;2023-04-24T06:48:30;1.58;;;0.57;;
75990;SDS011;64673;52.276;10.560;2023-04-24T06:50:55;2.63;;;0.80;;
75990;SDS011;64673;52.276;10.560;2023-04-24T06:53:21;1.65;;;0.80;;
75990;SDS011;64673;52.276;10.560;2023-04-24T06:55:46;1.40;;;0.70;;
75990;SDS011;64673;52.276;10.560;2023-04-24T06:58:11;3.42;;;1.00;;
75990;SDS011;64673;52.276;10.560;2023-04-24T07:00:37;2.60;;;1.20;;
75990;SDS011;64673;52.276;10.560;2023-04-24T07:03:03;2.47;;;1.00;;
75990;SDS011;64673;52.276;10.560;2023-04-24T07:05:30;4.25;;;0.90;;
75990;SDS011;64673;52.276;10.560;2023-04-24T07:07:56;4.35;;;1.05;;
75990;SDS011;64673;52.276;10.560;2023-04-24T07:10:23;3.03;;;1.00;;
75990;SDS011;64673;52.276;10.560;2023-04-24T07:12:49;2.08;;;0.68;;
75990;SDS011;64673;52.276;10.560;2023-04-24T07:15:14;2.38;;;0.90;;
75990;SDS011;64673;52.276;10.560;2023-04-24T07:17:40;1.85;;;0.70;;
75990;SDS011;64673;52.276;10.560;2023-04-24T07:20:08;2.30;;;1.05;;
75990;SDS011;64673;52.276;10.560;2023-04-24T07:22:35;2.85;;;0.90;;
75990;SDS011;64673;52.276;10.560;2023-04-24T07:25:00;3.25;;;1.27;;
75990;SDS011;64673;52.276;10.560;2023-04-24T07:27:26;3.33;;;1.00;;
75990;SDS011;64673;52.276;10.560;2023-04-24T07:29:51;2.30;;;1.05;;
75990;SDS011;64673;52.276;10.560;2023-04-24T07:32:17;3.70;;;0.97;;
75990;SDS011;64673;52.276;10.560;2023-04-24T07:34:42;1.60;;;0.60;;
75990;SDS011;64673;52.276;10.560;2023-04-24T07:37:07;2.40;;;0.95;;
75990;SDS011;64673;52.276;10.560;2023-04-24T07:39:33;1.63;;;0.47;;
75990;SDS011;64673;52.276;10.560;2023-04-24T07:41:58;0.80;;;0.50;;
75990;SDS011;64673;52.276;10.560;2023-04-24T07:44:24;1.00;;;0.60;;
75990;SDS011;64673;52.276;10.560;2023-04-24T07:46:49;2.15;;;1.00;;
75990;SDS011;64673;52.276;10.560;2023-04-24T07:49:15;3.22;;;0.73;;
75990;SDS011;64673;52.276;10.560;2023-04-24T07:51:40;2.22;;;0.77;;
75990;SDS011;64673;52.276;10.560;2023-04-24T07:54:06;1.63;;;0.73;;
75990;SDS011;64673;52.276;10.560;2023-04-24T07:56:31;1.80;;;0.90;;
75990;SDS011;64673;52.276;10.560;2023-04-24T07:58:58;2.70;;;0.93;;
75990;SDS011;64673;52.276;10.560;2023-04-24T08:01:23;1.80;;;1.00;;
75990;SDS011;64673;52.276;10.560;2023-04-24T08:03:48;2.85;;;1.00;;
75990;SDS011;64673;52.276;10.560;2023-04-24T08:06:13;1.67;;;1.02;;
75990;SDS011;64673;52.276;10.560;2023-04-24T08:08:39;2.10;;;1.10;;
75990;SDS011;64673;52.276;10.560;2023-04-24T08:11:04;2.65;;;1.02;;
75990;SDS011;64673;52.276;10.560;2023-04-24T08:13:30;1.60;;;1.13;;
75990;SDS011;64673;52.276;10.560;2023-04-24T08:15:56;2.47;;;1.40;;
75990;SDS011;64673;52.276;10.560;2023-04-24T08:18:21;2.50;;;1.50;;
75990;SDS011;64673;52.276;10.560;2023-04-24T08:20:47;2.08;;;1.45;;
75990;SDS011;64673;52.276;10.560;2023-04-24T08:23:12;3.05;;;1.20;;
75990;SDS011;64673;52.276;10.560;2023-04-24T08:25:38;2.17;;;0.90;;
75990;SDS011;64673;52.276;10.560;2023-04-24T08:28:05;2.63;;;1.42;;
75990;SDS011;64673;52.276;10.560;2023-04-24T08:30:31;1.70;;;1.10;;
75990;SDS011;64673;52.276;10.560;2023-04-24T08:32:56;2.00;;;1.10;;
75990;SDS011;64673;52.276;10.560;2023-04-24T08:35:22;1.90;;;0.95;;
75990;SDS011;64673;52.276;10.560;2023-04-24T08:37:48;2.30;;;1.30;;
75990;SDS011;64673;52.276;10.560;2023-04-24T08:40:13;2.45;;;1.38;;
75990;SDS011;64673;52.276;10.560;2023-04-24T08:42:41;3.60;;;1.52;;
75990;SDS011;64673;52.276;10.560;2023-04-24T08:45:08;2.60;;;1.52;;
75990;SDS011;64673;52.276;10.560;2023-04-24T08:47:34;3.17;;;1.45;;
75990;SDS011;64673;52.276;10.560;2023-04-24T08:50:00;1.77;;;1.25;;
75990;SDS011;64673;52.276;10.560;2023-04-24T08:52:28;3.40;;;1.50;;
75990;SDS011;64673;52.276;10.560;2023-04-24T08:54:54;2.03;;;1.40;;
75990;SDS011;64673;52.276;10.560;2023-04-24T08:57:20;2.25;;;1.48;;
75990;SDS011;64673;52.276;10.560;2023-04-24T08:59:45;4.53;;;1.40;;
75990;SDS011;64673;52.276;10.560;2023-04-24T09:02:11;2.75;;;1.42;;
75990;SDS011;64673;52.276;10.560;2023-04-24T09:04:38;2.40;;;1.25;;
75990;SDS011;64673;52.276;10.560;2023-04-24T09:07:06;2.60;;;1.60;;
75990;SDS011;64673;52.276;10.560;2023-04-24T09:09:33;3.03;;;1.50;;
75990;SDS011;64673;52.276;10.560;2023-04-24T09:11:59;4.05;;;1.40;;
75990;SDS011;64673;52.276;10.560;2023-04-24T09:14:25;2.90;;;1.55;;
75990;SDS011;64673;52.276;10.560;2023-04-24T09:16:51;3.00;;;1.60;;
75990;SDS011;64673;52.276;10.560;2023-04-24T09:19:16;1.90;;;1.15;;
75990;SDS011;64673;52.276;10.560;2023-04-24T09:21:42;2.92;;;1.50;;
75990;SDS011;64673;52.276;10.560;2023-04-24T09:24:20;3.75;;;1.60;;
75990;SDS011;64673;52.276;10.560;2023-04-24T09:26:55;3.03;;;1.92;;
75990;SDS011;64673;52.276;10.560;2023-04-24T09:29:24;3.42;;;1.83;;
75990;SDS011;64673;52.276;10.560;2023-04-24T09:31:49;3.47;;;1.80;;
75990;SDS011;64673;52.276;10.560;2023-04-24T09:34:19;3.63;;;2.10;;
75990;SDS011;64673;52.276;10.560;2023-04-24T09:36:46;2.78;;;1.42;;
75990;SDS011;64673;52.276;10.560;2023-04-24T09:39:13;2.33;;;1.45;;
75990;SDS011;64673;52.276;10.560;2023-04-24T09:44:14;2.47;;;1.50;;
75990;SDS011;64673;52.276;10.560;2023-04-24T09:46:41;2.17;;;1.45;;
75990;SDS011;64673;52.276;10.560;2023-04-24T09:49:08;2.17;;;1.33;;
75990;SDS011;64673;52.276;10.560;2023-04-24T09:51:36;2.33;;;1.40;;
75990;SDS011;64673;52.276;10.560;2023-04-24T09:54:15;3.42;;;2.00;;
75990;SDS011;64673;52.276;10.560;2023-04-24T09:56:46;2.83;;;1.83;;
75990;SDS011;64673;52.276;10.560;2023-04-24T09:59:13;2.58;;;1.73;;
75990;SDS011;64673;52.276;10.560;2023-04-24T10:01:39;3.80;;;1.60;;
75990;SDS011;64673;52.276;10.560;2023-04-24T10:04:14;2.78;;;1.30;;
75990;SDS011;64673;52.276;10.560;2023-04-24T10:06:43;3.30;;;1.25;;
75990;SDS011;64673;52.276;10.560;2023-04-24T10:09:09;2.97;;;1.17;;
75990;SDS011;64673;52.276;10.560;2023-04-24T10:11:37;5.10;;;1.30;;
75990;SDS011;64673;52.276;10.560;2023-04-24T10:14:02;1.75;;;1.10;;
75990;SDS011;64673;52.276;10.560;2023-04-24T10:16:28;3.45;;;1.50;;
75990;SDS011;64673;52.276;10.560;2023-04-24T10:18:55;2.33;;;1.38;;
75990;SDS011;64673;52.276;10.560;2023-04-24T10:21:23;1.75;;;1.10;;
75990;SDS011;64673;52.276;10.560;2023-04-24T10:23:49;2.60;;;1.42;;
75990;SDS011;64673;52.276;10.560;2023-04-24T10:26:16;2.15;;;1.40;;
75990;SDS011;64673;52.276;10.560;2023-04-24T10:28:46;3.28;;;1.80;;
75990;SDS011;64673;52.276;10.560;2023-04-24T10:31:12;2.83;;;1.30;;
75990;SDS011;64673;52.276;10.560;2023-04-24T10:33:39;2.35;;;1.40;;
75990;SDS011;64673;52.276;10.560;2023-04-24T10:36:07;3.22;;;1.60;;
75990;SDS011;64673;52.276;10.560;2023-04-24T10:38:34;2.15;;;1.30;;
75990;SDS011;64673;52.276;10.560;2023-04-24T10:41:11;2.17;;;1.58;;
75990;SDS011;64673;52.276;10.560;2023-04-24T10:43:44;3.17;;;1.65;;
75990;SDS011;64673;52.276;10.560;2023-04-24T10:46:10;2.55;;;1.52;;
75990;SDS011;64673;52.276;10.560;2023-04-24T10:48:36;1.90;;;1.40;;
75990;SDS011;64673;52.276;10.560;2023-04-24T10:51:10;3.03;;;1.50;;
75990;SDS011;64673;52.276;10.560;2023-04-24T10:53:37;2.22;;;1.45;;
75990;SDS011;64673;52.276;10.560;2023-04-24T10:56:04;2.42;;;1.60;;
75990;SDS011;64673;52.276;10.560;2023-04-24T10:58:41;2.45;;;1.23;;
75990;SDS011;64673;52.276;10.560;2023-04-24T11:03:55;2.03;;;1.17;;
75990;SDS011;64673;52.276;10.560;2023-04-24T11:06:29;2.40;;;1.30;;
75990;SDS011;64673;52.276;10.560;2023-04-24T11:09:01;2.33;;;1.33;;
75990;SDS011;64673;52.276;10.560;2023-04-24T11:11:29;1.77;;;1.02;;
75990;SDS011;64673;52.276;10.560;2023-04-24T11:16:27;2.83;;;1.17;;
75990;SDS011;64673;52.276;10.560;2023-04-24T11:19:05;2.42;;;0.90;;
75990;SDS011;64673;52.276;10.560;2023-04-24T11:21:43;1.48;;;1.00;;
75990;SDS011;64673;52.276;10.560;2023-04-24T11:27:12;2.15;;;0.93;;
75990;SDS011;64673;52.276;10.560;2023-04-24T11:34:59;1.45;;;0.70;;
75990;SDS011;64673;52.276;10.560;2023-04-24T11:37:28;1.40;;;0.60;;
75990;SDS011;64673;52.276;10.560;2023-04-24T11:39:58;1.20;;;0.65;;
75990;SDS011;64673;52.276;10.560;2023-04-24T11:42:23;2.40;;;0.70;;
75990;SDS011;64673;52.276;10.560;2023-04-24T11:44:51;2.88;;;1.08;;
75990;SDS011;64673;52.276;10.560;2023-04-24T11:47:18;1.25;;;0.75;;
75990;SDS011;64673;52.276;10.560;2023-04-24T11:49:43;1.70;;;1.00;;
75990;SDS011;64673;52.276;10.560;2023-04-24T11:52:08;4.35;;;0.70;;
75990;SDS011;64673;52.276;10.560;2023-04-24T11:54:35;1.40;;;0.73;;
75990;SDS011;64673;52.276;10.560;2023-04-24T11:57:03;1.00;;;0.57;;
75990;SDS011;64673;52.276;10.560;2023-04-24T11:59:34;2.20;;;0.70;;
75990;SDS011;64673;52.276;10.560;2023-04-24T12:02:01;1.25;;;0.60;;
75990;SDS011;64673;52.276;10.560;2023-04-24T12:04:26;4.47;;;0.95;;
75990;SDS011;64673;52.276;10.560;2023-04-24T12:07:03;1.75;;;1.05;;
75990;SDS011;64673;52.276;10.560;2023-04-24T12:09:45;1.90;;;1.08;;
75990;SDS011;64673;52.276;10.560;2023-04-24T12:12:25;2.45;;;0.93;;
75990;SDS011;64673;52.276;10.560;2023-04-24T12:14:53;1.88;;;1.10;;
75990;SDS011;64673;52.276;10.560;2023-04-24T12:20:03;2.55;;;0.90;;
75990;SDS011;64673;52.276;10.560;2023-04-24T12:30:28;2.92;;;1.08;;
75990;SDS011;64673;52.276;10.560;2023-04-24T12:32:56;2.83;;;1.20;;
75990;SDS011;64673;52.276;10.560;2023-04-24T12:35:23;1.70;;;0.82;;
75990;SDS011;64673;52.276;10.560;2023-04-24T12:37:50;1.55;;;0.90;;
75990;SDS011;64673;52.276;10.560;2023-04-24T12:40:16;2.10;;;1.27;;
75990;SDS011;64673;52.276;10.560;2023-04-24T12:42:43;1.70;;;1.00;;
75990;SDS011;64673;52.276;10.560;2023-04-24T12:45:10;2.45;;;1.10;;
75990;SDS011;64673;52.276;10.560;2023-04-24T12:47:40;1.55;;;1.10;;
75990;SDS011;64673;52.276;10.560;2023-04-24T12:50:07;2.83;;;1.05;;
75990;SDS011;64673;52.276;10.560;2023-04-24T12:52:33;5.43;;;1.10;;
75990;SDS011;64673;52.276;10.560;2023-04-24T12:55:00;2.03;;;0.90;;
75990;SDS011;64673;52.276;10.560;2023-04-24T12:57:26;1.70;;;0.80;;
75990;SDS011;64673;52.276;10.560;2023-04-24T12:59:53;2.60;;;0.70;;
75990;SDS011;64673;52.276;10.560;2023-04-24T13:02:21;2.30;;;0.60;;
75990;SDS011;64673;52.276;10.560;2023-04-24T13:04:47;1.10;;;0.45;;
75990;SDS011;64673;52.276;10.560;2023-04-24T13:07:13;0.55;;;0.25;;
75990;SDS011;64673;52.276;10.560;2023-04-24T13:09:39;1.80;;;0.30;;
75990;SDS011;64673;52.276;10.560;2023-04-24T13:12:05;0.40;;;0.20;;
75990;SDS011;64673;52.276;10.560;2023-04-24T13:14:31;0.10;;;0.10;;
75990;SDS011;64673;52.276;10.560;2023-04-24T13:16:57;0.82;;;0.20;;
75990;SDS011;64673;52.276;10.560;2023-04-24T13:19:25;0.82;;;0.20;;
75990;SDS011;64673;52.276;10.560;2023-04-24T13:21:51;0.50;;;0.25;;
75990;SDS011;64673;52.276;10.560;2023-04-24T13:24:17;0.80;;;0.40;;
75990;SDS011;64673;52.276;10.560;2023-04-24T13:26:43;2.28;;;0.40;;
75990;SDS011;64673;52.276;10.560;2023-04-24T13:29:08;0.55;;;0.30;;
75990;SDS011;64673;52.276;10.560;2023-04-24T13:31:34;0.63;;;0.40;;
75990;SDS011;64673;52.276;10.560;2023-04-24T13:33:59;1.20;;;0.40;;
75990;SDS011;64673;52.276;10.560;2023-04-24T13:36:24;0.70;;;0.35;;
75990;SDS011;64673;52.276;10.560;2023-04-24T13:38:50;0.82;;;0.43;;
75990;SDS011;64673;52.276;10.560;2023-04-24T13:41:15;1.45;;;0.40;;
75990;SDS011;64673;52.276;10.560;2023-04-24T13:43:41;0.93;;;0.50;;
75990;SDS011;64673;52.276;10.560;2023-04-24T13:46:07;0.50;;;0.30;;
75990;SDS011;64673;52.276;10.560;2023-04-24T13:48:33;0.77;;;0.40;;
75990;SDS011;64673;52.276;10.560;2023-04-24T13:50:58;0.88;;;0.50;;
75990;SDS011;64673;52.276;10.560;2023-04-24T13:53:24;0.90;;;0.50;;
75990;SDS011;64673;52.276;10.560;2023-04-24T13:55:49;0.77;;;0.40;;
75990;SDS011;64673;52.276;10.560;2023-04-24T13:58:14;1.23;;;0.63;;
75990;SDS011;64673;52.276;10.560;2023-04-24T14:00:40;1.40;;;0.70;;
75990;SDS011;64673;52.276;10.560;2023-04-24T14:03:05;1.25;;;0.52;;
75990;SDS011;64673;52.276;10.560;2023-04-24T14:05:31;1.58;;;0.60;;
75990;SDS011;64673;52.276;10.560;2023-04-24T14:07:59;1.00;;;0.52;;
75990;SDS011;64673;52.276;10.560;2023-04-24T14:10:24;1.25;;;0.57;;
75990;SDS011;64673;52.276;10.560;2023-04-24T14:12:51;1.33;;;0.70;;
75990;SDS011;64673;52.276;10.560;2023-04-24T14:15:18;1.08;;;0.68;;
75990;SDS011;64673;52.276;10.560;2023-04-24T14:17:43;1.25;;;0.60;;
75990;SDS011;64673;52.276;10.560;2023-04-24T14:20:09;1.17;;;0.65;;
75990;SDS011;64673;52.276;10.560;2023-04-24T14:22:34;1.08;;;0.60;;
75990;SDS011;64673;52.276;10.560;2023-04-24T14:25:00;0.90;;;0.60;;
75990;SDS011;64673;52.276;10.560;2023-04-24T14:27:25;1.10;;;0.50;;
75990;SDS011;64673;52.276;10.560;2023-04-24T14:29:51;0.93;;;0.45;;
75990;SDS011;64673;52.276;10.560;2023-04-24T14:32:16;1.05;;;0.40;;
75990;SDS011;64673;52.276;10.560;2023-04-24T14:34:42;0.60;;;0.30;;
75990;SDS011;64673;52.276;10.560;2023-04-24T14:37:07;1.55;;;0.40;;
75990;SDS011;64673;52.276;10.560;2023-04-24T14:39:33;1.20;;;0.40;;
75990;SDS011;64673;52.276;10.560;2023-04-24T14:41:58;0.50;;;0.30;;
75990;SDS011;64673;52.276;10.560;2023-04-24T14:44:23;0.60;;;0.40;;
75990;SDS011;64673;52.276;10.560;2023-04-24T14:46:49;0.60;;;0.13;;
75990;SDS011;64673;52.276;10.560;2023-04-24T14:49:15;0.38;;;0.13;;
75990;SDS011;64673;52.276;10.560;2023-04-24T14:51:40;0.25;;;0.10;;
75990;SDS011;64673;52.276;10.560;2023-04-24T14:54:06;0.40;;;0.10;;
75990;SDS011;64673;52.276;10.560;2023-04-24T14:56:31;0.30;;;0.10;;